Rick Husband Amarillo International Airport
KAMA : rendu visible

Aérodrome :











RETROUVEZ-NOUS SUR...

 
LOGIN :

S'inscrire | Disclaimer

   EN    FR    IT 

 









Légende :    VFR   VFR Marginal   IFR   IFR Intensif   IFR Très Intensif
Visi : 
Plafond : 
>= 8 km
>= 3000ft
5 à 8 km
1000 à 3000 ft
1500m à 5 km
500 à 1000 ft
800 à 1500m
200 à 500 ft
< 800m
< 200 ft
Symboles :   Orages  Brouillard  Fortes neiges  Fortes précipitations  Vent > 20 kt






- Altitude de l'aérodrome : 3607 ft
- Code IATA : AMA


KAMA - Rick Husband Amarillo International

DERNIER METAR :
  • 030053Z 04014KT 10SM CLR 14/05 A2979 RMK AO2 PK WND 06027/0033 SLP063 T01440050

METARs EXPIRÉS :
  • 022353Z 05019KT 10SM CLR 20/07 A2975 RMK AO2 PK WND 06026/2338 WSHFT 2307 SLP044 T02000067 10278 20200 53009
  • 022327Z 05019G25KT 10SM CLR 21/06 A2974 RMK AO2 WSHFT 2307 T02060061
  • 022253Z 23008KT 10SM CLR 27/M05 A2973 RMK AO2 SLP027 T02671050

TAF KAMA
Valide du 03 à 00h jusqu'au 04 à 00h UTC


022345Z 0300/0324 04019G29KT P6SM FEW300
FM030500 01027G38KT P6SM OVC015
FM031100 35022G32KT P6SM BKN035
FM031400 36018G28KT P6SM SCT300
FM031800 01013KT P6SM FEW300



MET'MAP, la Météo Aéronautique d'un coup d'oeil ! - Copyright ORBIFLY Décembre 2007 - Disclaimer

ORBIFLY MET'MAP TEAM :

Programmation & Développement : Alexandra Zaïnal
Sur une idée originale de : Baudouin d'Aumeries
Assistance à la programmation : Marc-Olivier Méhu
Soutien technique & logistique : Manuel Goepfert

Contact : metmap@orbifly.com




SOURCES & CREDITS :

   NOAA       Earth
Advisory